Bloomfield, New York
Current Conditions -  °F | °C
As of 4:00 PM on Wednesday 26 Nov 2014 (Local Time) from KROC Reporting Station
Light Snow Light Snow  
Wind Chill: 29°   Ceiling: 600
Heat Index: 33°   Visibility: 0.75mi
Dew Point: 31°   Wind: 5mph
Humidity: 92%   Direction: 360°N
Pressure: 30.1"   Gusts: NA
Location:  42.88°N, 77.46°W
Report Text: KROC 262100Z 36004KT 3/4SM R04/P6000FT -SN BR BKN006 OVC013 01/M01 A3010 RMK AO2 TWR VIS 1 P0000 T00061006
Loading
Personal Weather Stations






























Interactive Weather Map New forecast layout! Learn more

10-Day Weather Forecast

Advertisements
Track Severe Weather on mobile